createdAt,value
2023-01-20T00:00:04.247Z,97057.60
2023-01-20T00:02:32.057Z,97060.39
2023-01-20T00:05:07.749Z,97061.96
2023-01-20T00:07:54.455Z,97061.48
2023-01-20T00:10:23.562Z,97062.85
2023-01-20T00:12:50.725Z,97064.01
2023-01-20T00:15:20.058Z,97057.44
2023-01-20T00:17:48.775Z,97054.67
2023-01-20T00:20:18.860Z,97044.02
2023-01-20T00:22:47.178Z,97044.80
2023-01-20T00:25:32.834Z,97046.59
2023-01-20T00:28:00.472Z,97053.73
2023-01-20T00:30:38.028Z,97049.92
2023-01-20T00:33:06.372Z,97042.78
2023-01-20T00:35:37.382Z,97039.59
2023-01-20T00:38:05.610Z,97044.52
2023-01-20T00:40:34.278Z,97049.66
2023-01-20T00:43:01.758Z,97061.58
2023-01-20T00:45:31.421Z,97066.02
2023-01-20T00:48:08.882Z,97061.50
2023-01-20T00:50:37.098Z,97059.42
2023-01-20T00:53:04.310Z,97056.08
2023-01-20T00:55:32.204Z,97057.35
2023-01-20T00:58:00.087Z,97054.59
2023-01-20T01:00:27.540Z,97058.96
2023-01-20T01:02:55.499Z,97059.38
2023-01-20T01:05:23.747Z,97060.80
2023-01-20T01:07:51.530Z,97065.56
2023-01-20T01:10:24.908Z,97071.71
2023-01-20T01:12:52.603Z,97071.79
2023-01-20T01:15:19.715Z,97071.31
2023-01-20T01:17:47.033Z,97075.55
2023-01-20T01:20:14.939Z,97082.88
2023-01-20T01:22:41.986Z,97091.00
2023-01-20T01:25:09.966Z,97091.70
2023-01-20T01:27:37.327Z,97091.77
2023-01-20T01:30:05.801Z,97101.92
2023-01-20T01:32:33.978Z,97110.00
2023-01-20T01:35:02.145Z,97114.26
2023-01-20T01:37:29.835Z,97121.71
2023-01-20T01:39:57.361Z,97126.82
2023-01-20T01:42:27.216Z,97133.47
2023-01-20T01:45:27.364Z,97135.38
2023-01-20T01:48:03.742Z,97144.27
2023-01-20T01:50:53.031Z,97145.46
2023-01-20T01:53:23.097Z,97142.74
2023-01-20T01:55:58.489Z,97130.96
2023-01-20T01:58:36.002Z,97121.15
2023-01-20T02:04:08.572Z,97118.42
2023-01-20T02:06:40.970Z,97117.36
2023-01-20T02:09:09.459Z,97111.85
2023-01-20T02:11:50.479Z,97108.87
2023-01-20T02:14:23.652Z,97114.75
2023-01-20T02:17:25.278Z,97122.79
2023-01-20T02:20:25.538Z,97124.52
2023-01-20T02:23:18.460Z,97125.52
2023-01-20T02:26:03.317Z,97123.98
2023-01-20T02:28:58.752Z,97122.78
2023-01-20T02:32:08.921Z,97125.85
2023-01-20T02:34:44.836Z,97104.39
2023-01-20T02:37:27.978Z,97094.73
2023-01-20T02:40:01.114Z,97095.57
2023-01-20T02:42:38.485Z,97101.27
2023-01-20T02:45:17.898Z,97105.92
2023-01-20T02:48:18.811Z,97107.42
2023-01-20T02:51:12.212Z,97108.92
2023-01-20T02:53:57.362Z,97123.00
2023-01-20T02:56:30.184Z,97134.58
2023-01-20T02:59:02.717Z,97141.73
2023-01-20T03:01:44.610Z,97149.55
2023-01-20T03:04:18.768Z,97152.23
2023-01-20T03:06:54.042Z,97157.98
2023-01-20T03:09:42.083Z,97150.51
2023-01-20T03:12:25.020Z,97154.02
2023-01-20T03:14:55.529Z,97151.54
2023-01-20T03:17:24.650Z,97157.02
2023-01-20T03:19:52.174Z,97160.27
2023-01-20T03:22:19.389Z,97154.35
2023-01-20T03:24:49.843Z,97150.91
2023-01-20T03:27:17.388Z,97151.33
2023-01-20T03:29:45.020Z,97153.58
2023-01-20T03:32:13.200Z,97154.33
2023-01-20T03:34:44.453Z,97154.40
2023-01-20T03:37:13.533Z,97161.02
2023-01-20T03:39:40.757Z,97169.82
2023-01-20T03:42:20.110Z,97174.17
2023-01-20T03:45:24.680Z,97184.34
2023-01-20T03:48:00.895Z,97186.06
2023-01-20T03:50:30.937Z,97185.50
2023-01-20T03:53:38.537Z,97182.54
2023-01-20T03:56:26.400Z,97185.70
2023-01-20T03:58:57.968Z,97186.94
2023-01-20T04:01:31.325Z,97186.39
2023-01-20T04:04:00.291Z,97192.10
2023-01-20T04:06:35.618Z,97191.80
2023-01-20T04:09:11.179Z,97196.48
2023-01-20T04:11:39.246Z,97196.27
2023-01-20T04:14:10.049Z,97198.31
2023-01-20T04:16:40.293Z,97201.52
2023-01-20T04:19:08.467Z,97207.20
2023-01-20T04:22:04.298Z,97207.27
2023-01-20T04:25:01.423Z,97211.05
2023-01-20T04:27:30.465Z,97206.27
2023-01-20T04:29:57.594Z,97206.00
2023-01-20T04:32:24.635Z,97204.55
2023-01-20T04:34:53.137Z,97206.61
2023-01-20T04:37:20.239Z,97214.14
2023-01-20T04:39:48.137Z,97217.55
2023-01-20T04:42:15.221Z,97220.77
2023-01-20T04:44:42.621Z,97231.16
2023-01-20T04:47:09.647Z,97233.39
2023-01-20T04:49:37.430Z,97234.31
2023-01-20T04:52:04.795Z,97232.56
2023-01-20T04:54:32.022Z,97237.41
2023-01-20T04:56:59.195Z,97240.23
2023-01-20T04:59:26.175Z,97241.86
2023-01-20T05:01:53.740Z,97241.38
2023-01-20T05:04:21.694Z,97243.58
2023-01-20T05:06:48.708Z,97246.22
2023-01-20T05:09:17.625Z,97245.61
2023-01-20T05:11:45.228Z,97240.77
2023-01-20T05:14:13.072Z,97244.06
2023-01-20T05:16:40.461Z,97247.33
2023-01-20T05:19:07.984Z,97245.23
2023-01-20T05:21:35.195Z,97245.20
2023-01-20T05:24:02.910Z,97245.76
2023-01-20T05:26:30.397Z,97251.05
2023-01-20T05:28:57.654Z,97260.33
2023-01-20T05:31:25.984Z,97266.16
2023-01-20T05:33:53.071Z,97271.71
2023-01-20T05:36:20.534Z,97278.66
2023-01-20T05:38:47.686Z,97281.20
2023-01-20T05:41:15.322Z,97282.13
2023-01-20T05:43:42.546Z,97283.20
2023-01-20T05:46:12.402Z,97283.43
2023-01-20T05:48:39.660Z,97284.46
2023-01-20T05:51:07.148Z,97289.77
2023-01-20T05:53:34.404Z,97289.75
2023-01-20T05:56:03.281Z,97287.39
2023-01-20T05:58:32.014Z,97289.02
2023-01-20T06:01:10.470Z,97292.39
2023-01-20T06:03:38.262Z,97296.30
2023-01-20T06:06:08.686Z,97298.02
2023-01-20T06:08:36.788Z,97296.05
2023-01-20T06:11:04.141Z,97299.33
2023-01-20T06:13:31.308Z,97299.60
2023-01-20T06:15:58.579Z,97297.64
2023-01-20T06:18:25.542Z,97292.44
2023-01-20T06:20:56.779Z,97294.11
2023-01-20T06:23:23.963Z,97294.69
2023-01-20T06:26:08.630Z,97295.83
2023-01-20T06:28:36.413Z,97302.11
2023-01-20T06:31:06.635Z,97297.94
2023-01-20T06:33:34.396Z,97300.98
2023-01-20T06:36:02.982Z,97303.95
2023-01-20T06:38:32.417Z,97305.63
2023-01-20T06:41:06.964Z,97302.79
2023-01-20T06:43:36.518Z,97308.73
2023-01-20T06:46:06.425Z,97310.77
2023-01-20T06:48:37.650Z,97317.73
2023-01-20T06:51:16.682Z,97316.55
2023-01-20T06:53:44.860Z,97324.16
2023-01-20T06:56:17.240Z,97327.27
2023-01-20T06:58:45.286Z,97329.48
2023-01-20T07:01:16.353Z,97336.14
2023-01-20T07:03:45.485Z,97334.25
2023-01-20T07:06:34.724Z,97337.20
2023-01-20T07:09:03.272Z,97336.59
2023-01-20T07:11:31.735Z,97341.27
2023-01-20T07:13:59.651Z,97350.42
2023-01-20T07:16:27.073Z,97350.48
2023-01-20T07:18:55.346Z,97351.40
2023-01-20T07:21:26.033Z,97351.58
2023-01-20T07:23:53.940Z,97355.52
2023-01-20T07:26:23.367Z,97359.58
2023-01-20T07:28:50.637Z,97363.72
2023-01-20T07:31:25.072Z,97365.89
2023-01-20T07:33:52.769Z,97375.17
2023-01-20T07:36:21.940Z,97380.41
2023-01-20T07:38:50.851Z,97384.25
2023-01-20T07:41:20.220Z,97386.69
2023-01-20T07:43:50.217Z,97386.42
2023-01-20T07:46:17.828Z,97384.30
2023-01-20T07:48:45.818Z,97381.96
2023-01-20T07:51:14.953Z,97377.96
2023-01-20T07:53:47.887Z,97378.39
2023-01-20T07:56:19.604Z,97374.71
2023-01-20T07:58:51.013Z,97370.09
2023-01-20T08:01:24.380Z,97365.27
2023-01-20T08:03:53.625Z,97368.52
2023-01-20T08:06:23.821Z,97369.31
2023-01-20T08:08:52.754Z,97370.61
2023-01-20T08:11:25.670Z,97367.31
2023-01-20T08:13:54.299Z,97372.41
2023-01-20T08:16:21.907Z,97383.00
2023-01-20T08:18:49.919Z,97386.05
2023-01-20T08:21:25.575Z,97383.98
2023-01-20T08:23:55.928Z,97382.63
2023-01-20T08:26:25.327Z,97390.29
2023-01-20T08:28:53.332Z,97393.56
2023-01-20T08:31:24.263Z,97393.06
2023-01-20T08:34:02.725Z,97388.40
2023-01-20T08:36:36.555Z,97391.75
2023-01-20T08:39:08.365Z,97392.61
2023-01-20T08:41:39.298Z,97392.86
2023-01-20T08:44:08.462Z,97401.73
2023-01-20T08:46:41.517Z,97407.94
2023-01-20T08:49:15.277Z,97414.36
2023-01-20T08:51:45.442Z,97419.38
2023-01-20T08:54:12.767Z,97424.08
2023-01-20T08:56:41.568Z,97423.41
2023-01-20T08:59:09.179Z,97423.23
2023-01-20T09:01:38.319Z,97425.96
2023-01-20T09:04:07.786Z,97431.67
2023-01-20T09:06:45.779Z,97431.30
2023-01-20T09:09:14.957Z,97429.87
2023-01-20T09:11:57.528Z,97429.64
2023-01-20T09:14:26.408Z,97429.21
2023-01-20T09:16:53.934Z,97427.64
2023-01-20T09:19:20.962Z,97426.90
2023-01-20T09:21:48.538Z,97430.99
2023-01-20T09:24:15.967Z,97429.42
2023-01-20T09:26:43.206Z,97430.98
2023-01-20T09:29:22.668Z,97423.91
2023-01-20T09:32:04.760Z,97425.98
2023-01-20T09:34:40.271Z,97422.98
2023-01-20T09:37:26.212Z,97421.60
2023-01-20T09:40:13.372Z,97423.23
2023-01-20T09:43:25.044Z,97422.02
2023-01-20T09:46:17.611Z,97423.09
2023-01-20T09:49:40.076Z,97425.55
2023-01-20T09:52:44.686Z,97424.13
2023-01-20T09:55:26.822Z,97431.35
2023-01-20T09:58:36.122Z,97425.23
2023-01-20T10:01:50.441Z,97418.14
2023-01-20T10:04:54.466Z,97418.33
2023-01-20T10:07:51.705Z,97418.54
2023-01-20T10:10:57.523Z,97415.77
2023-01-20T10:14:17.709Z,97403.00
2023-01-20T10:17:19.118Z,97403.77
2023-01-20T10:20:06.692Z,97404.19
2023-01-20T10:23:22.644Z,97404.59
2023-01-20T10:26:11.196Z,97408.24
2023-01-20T10:28:43.937Z,97408.64
2023-01-20T10:31:21.687Z,97409.44
2023-01-20T10:33:50.406Z,97410.27
2023-01-20T10:37:00.960Z,97413.58
2023-01-20T10:39:51.148Z,97414.55
2023-01-20T10:43:08.009Z,97419.17
2023-01-20T10:46:14.459Z,97419.84
2023-01-20T10:49:04.732Z,97423.29
2023-01-20T10:52:05.105Z,97427.08
2023-01-20T10:55:14.908Z,97429.31
2023-01-20T10:57:43.410Z,97431.60
2023-01-20T11:00:31.893Z,97432.36
2023-01-20T11:03:07.110Z,97432.72
2023-01-20T11:05:39.048Z,97432.80
2023-01-20T11:08:27.797Z,97432.86
2023-01-20T11:11:00.510Z,97428.63
2023-01-20T11:13:28.353Z,97427.89
2023-01-20T11:16:01.775Z,97428.29
2023-01-20T11:18:32.569Z,97424.95
2023-01-20T11:21:15.393Z,97425.61
2023-01-20T11:23:50.053Z,97423.50
2023-01-20T11:26:28.366Z,97418.42
2023-01-20T11:29:12.428Z,97413.41
2023-01-20T11:31:39.764Z,97411.58
2023-01-20T11:34:22.338Z,97406.33
2023-01-20T11:36:51.306Z,97403.03
2023-01-20T11:40:19.638Z,97399.76
2023-01-20T11:44:10.417Z,97402.71
2023-01-20T11:51:21.634Z,97391.13
2023-01-20T11:59:18.065Z,97380.05
2023-01-20T12:03:07.967Z,97369.48
2023-01-20T12:07:10.423Z,97361.23
2023-01-20T12:11:00.959Z,97360.53
2023-01-20T12:15:07.470Z,97367.79
2023-01-20T12:19:02.519Z,97377.70
2023-01-20T12:22:51.951Z,97368.75
2023-01-20T12:26:43.247Z,97361.27
2023-01-20T12:54:59.663Z,97384.56
2023-01-20T12:58:57.954Z,97381.23
2023-01-20T13:02:31.833Z,97385.13
2023-01-20T13:06:14.748Z,97385.83
2023-01-20T13:10:05.755Z,97394.29
2023-01-20T13:13:57.221Z,97401.52
2023-01-20T13:17:29.425Z,97403.15
2023-01-20T13:21:18.941Z,97408.74
2023-01-20T13:25:03.973Z,97424.07
2023-01-20T13:28:36.549Z,97427.73
2023-01-20T13:31:39.158Z,97434.25
2023-01-20T13:34:26.415Z,97436.95
2023-01-20T13:37:13.860Z,97440.48
2023-01-20T13:40:09.701Z,97438.41
2023-01-20T13:43:39.023Z,97436.11
2023-01-20T13:50:47.829Z,97448.24
2023-01-20T13:54:35.469Z,97457.58
2023-01-20T13:58:23.341Z,97458.17
2023-01-20T14:02:10.882Z,97455.52
2023-01-20T14:05:39.011Z,97464.38
2023-01-20T14:09:08.500Z,97462.45
2023-01-20T14:12:04.047Z,97462.66
2023-01-20T14:19:07.315Z,97464.83
2023-01-20T14:22:34.375Z,97470.23
2023-01-20T14:26:02.560Z,97469.64
2023-01-20T14:29:49.878Z,97467.21
2023-01-20T14:32:51.839Z,97472.04
2023-01-20T14:36:26.339Z,97473.41
2023-01-20T14:40:14.561Z,97470.97
2023-01-20T14:43:29.034Z,97478.54
2023-01-20T14:46:43.524Z,97477.95
2023-01-20T14:50:14.855Z,97478.42
2023-01-20T14:54:02.469Z,97476.50
2023-01-20T14:57:59.986Z,97475.50
2023-01-20T15:01:50.597Z,97480.98
2023-01-20T15:05:39.566Z,97486.33
2023-01-20T15:09:29.203Z,97489.88
2023-01-20T15:13:15.193Z,97489.19
2023-01-20T15:17:06.901Z,97486.84
2023-01-20T15:21:16.697Z,97487.63
2023-01-20T15:25:00.009Z,97488.29
2023-01-20T15:28:48.193Z,97486.55
2023-01-20T15:32:35.758Z,97485.36
2023-01-20T15:36:23.497Z,97488.09
2023-01-20T15:40:14.972Z,97487.11
2023-01-20T15:44:06.461Z,97486.36
2023-01-20T15:47:47.666Z,97480.90
2023-01-20T15:50:44.799Z,97481.15
2023-01-20T15:54:14.241Z,97484.74
2023-01-20T16:01:12.688Z,97485.63
2023-01-20T16:04:39.976Z,97487.84
2023-01-20T16:08:08.980Z,97483.96
2023-01-20T16:11:21.901Z,97488.04
2023-01-20T16:14:49.664Z,97486.98
2023-01-20T16:17:24.300Z,97490.88
2023-01-20T16:20:16.015Z,97490.18
2023-01-20T16:23:43.297Z,97490.84
2023-01-20T16:27:20.764Z,97488.88
2023-01-20T16:29:50.786Z,97491.83
2023-01-20T16:33:18.413Z,97493.56
2023-01-20T16:36:49.075Z,97495.27
2023-01-20T16:40:06.035Z,97493.72
2023-01-20T16:43:16.733Z,97497.37
2023-01-20T16:46:43.751Z,97500.51
2023-01-20T16:50:14.493Z,97505.07
2023-01-20T16:53:41.598Z,97501.48
2023-01-20T16:57:28.821Z,97503.83
2023-01-20T17:01:06.319Z,97504.33
2023-01-20T17:04:55.258Z,97508.35
2023-01-20T17:08:22.935Z,97507.71
2023-01-20T17:12:06.594Z,97505.80
2023-01-20T17:15:55.080Z,97513.19
2023-01-20T17:19:42.359Z,97518.81
2023-01-20T17:22:58.878Z,97522.97
2023-01-20T17:26:26.456Z,97520.59
2023-01-20T17:30:13.699Z,97518.77
2023-01-20T17:33:42.930Z,97517.75
2023-01-20T17:37:34.535Z,97517.99
2023-01-20T17:41:03.883Z,97512.33
2023-01-20T17:44:54.904Z,97510.54
2023-01-20T17:48:22.260Z,97506.45
2023-01-20T17:52:09.428Z,97505.32
2023-01-20T17:56:10.949Z,97498.35
2023-01-20T17:59:43.729Z,97498.52
2023-01-20T18:03:30.967Z,97496.49
2023-01-20T18:07:16.681Z,97492.67
2023-01-20T18:10:07.596Z,97492.67
2023-01-20T18:13:16.374Z,97492.08
2023-01-20T18:16:45.644Z,97488.13
2023-01-20T18:20:13.741Z,97488.30
2023-01-20T18:23:41.885Z,97487.13
2023-01-20T18:26:12.644Z,97483.36
2023-01-20T18:28:42.155Z,97481.38
2023-01-20T18:31:18.224Z,97477.49
2023-01-20T18:33:49.080Z,97475.31
2023-01-20T18:36:24.402Z,97475.51
2023-01-20T18:38:54.171Z,97469.65
2023-01-20T18:41:25.764Z,97473.05
2023-01-20T18:43:53.547Z,97473.74
2023-01-20T18:46:21.563Z,97472.77
2023-01-20T18:48:58.245Z,97478.02
2023-01-20T18:51:31.230Z,97476.29
2023-01-20T18:54:06.483Z,97471.35
2023-01-20T18:56:37.848Z,97463.85
2023-01-20T18:59:08.301Z,97460.54
2023-01-20T19:01:57.084Z,97460.58
2023-01-20T19:04:25.021Z,97457.52
2023-01-20T19:06:54.513Z,97457.34
2023-01-20T19:09:23.378Z,97455.76
2023-01-20T19:11:51.712Z,97456.37
2023-01-20T19:14:48.662Z,97448.33
2023-01-20T19:18:16.617Z,97444.74
2023-01-20T19:21:28.051Z,97449.80
2023-01-20T19:31:49.671Z,97466.52
2023-01-20T19:34:52.662Z,97459.70
2023-01-20T19:37:21.087Z,97452.27
2023-01-20T19:39:50.230Z,97465.66
2023-01-20T19:42:18.471Z,97467.33
2023-01-20T19:44:48.488Z,97458.95
2023-01-20T19:47:16.823Z,97464.09
2023-01-20T19:49:45.253Z,97466.46
2023-01-20T19:52:49.024Z,97459.19
2023-01-20T19:56:00.381Z,97449.74
2023-01-20T19:58:50.104Z,97450.48
2023-01-20T20:02:10.558Z,97452.36
2023-01-20T20:05:11.286Z,97460.52
2023-01-20T20:07:53.244Z,97462.88
2023-01-20T20:10:37.009Z,97458.19
2023-01-20T20:13:25.705Z,97454.95
2023-01-20T20:16:35.781Z,97449.82
2023-01-20T20:19:45.743Z,97452.69
2023-01-20T20:22:40.758Z,97451.15
2023-01-20T20:26:08.376Z,97451.91
2023-01-20T20:29:53.697Z,97445.27
2023-01-20T20:33:30.775Z,97448.09
2023-01-20T20:37:01.600Z,97458.20
2023-01-20T20:40:35.689Z,97465.48
2023-01-20T20:44:23.372Z,97461.53
2023-01-20T20:47:54.499Z,97443.80
2023-01-20T20:51:22.500Z,97442.59
2023-01-20T20:54:33.988Z,97440.21
2023-01-20T20:58:04.131Z,97431.64
2023-01-20T21:01:15.397Z,97439.13
2023-01-20T21:04:47.214Z,97437.16
2023-01-20T21:08:38.716Z,97435.91
2023-01-20T21:12:28.644Z,97439.55
2023-01-20T21:16:16.119Z,97444.98
2023-01-20T21:20:05.789Z,97447.14
2023-01-20T21:23:34.117Z,97437.15
2023-01-20T21:27:26.015Z,97424.23
2023-01-20T21:31:14.331Z,97419.17
2023-01-20T21:35:02.336Z,97417.77
2023-01-20T21:38:50.208Z,97416.04
2023-01-20T21:42:37.791Z,97408.00
2023-01-20T21:46:26.320Z,97400.20
2023-01-20T21:50:12.331Z,97400.61
2023-01-20T21:53:59.772Z,97396.40
2023-01-20T21:57:57.690Z,97402.02
2023-01-20T22:01:48.360Z,97397.75
2023-01-20T22:05:35.925Z,97405.23
2023-01-20T22:09:22.731Z,97398.45
2023-01-20T22:12:11.819Z,97397.78
2023-01-20T22:15:11.365Z,97396.73
2023-01-20T22:18:18.988Z,97391.41
2023-01-20T22:21:14.385Z,97386.56
2023-01-20T22:24:30.242Z,97389.23
2023-01-20T22:27:35.027Z,97388.95
2023-01-20T22:31:22.311Z,97396.77
2023-01-20T22:34:37.844Z,97386.01
2023-01-20T22:37:36.057Z,97378.52
2023-01-20T22:41:02.948Z,97376.58
2023-01-20T22:44:14.201Z,97374.36
2023-01-20T22:46:50.551Z,97366.23
2023-01-20T22:50:02.878Z,97369.20
2023-01-20T22:52:57.232Z,97372.97
2023-01-20T22:56:01.128Z,97368.61
2023-01-20T22:59:10.428Z,97367.61
2023-01-20T23:02:42.024Z,97371.15
2023-01-20T23:06:12.918Z,97361.54
2023-01-20T23:10:09.392Z,97366.29
2023-01-20T23:13:59.132Z,97363.69
2023-01-20T23:17:46.912Z,97365.45
2023-01-20T23:25:16.928Z,97370.83
2023-01-20T23:28:24.395Z,97371.64
2023-01-20T23:34:05.440Z,97370.41
2023-01-20T23:39:29.680Z,97369.05
2023-01-20T23:42:28.407Z,97363.14
2023-01-20T23:47:45.338Z,97359.93
2023-01-20T23:51:12.352Z,97355.14
2023-01-20T23:54:32.690Z,97356.98
2023-01-20T23:57:42.443Z,97358.23
